Time;durP1;ratioP1;P1;durP2;ratioP2;P2;SDS_P1;SDS_P2;PMS_P1;PMS_P2;Temp;Humidity;BMP_temperature;BMP_pressure;BME280_temperature;BME280_humidity;BME280_pressure;Samples;Min_cycle;Max_cycle;Signal;HPM_P1;HPM_P2
2023/03/16 00:00:03;;;;;;;61.30;22.50;;;;;;;-1.01;73.71;98786.43;104140;1273;108663;-66
2023/03/16 00:02:30;;;;;;;53.20;20.60;;;;;;;-1.07;73.90;98785.80;104200;1272;96823;-68
2023/03/16 00:04:57;;;;;;;56.20;21.50;;;;;;;-1.13;74.22;98787.02;104166;1270;96762;-66
2023/03/16 00:07:24;;;;;;;53.40;19.50;;;;;;;-1.18;74.57;98790.98;104296;1276;97228;-65
2023/03/16 00:09:53;;;;;;;49.50;19.50;;;;;;;-1.23;74.60;98793.72;104551;1276;96634;-65
2023/03/16 00:12:21;;;;;;;50.10;19.40;;;;;;;-1.29;75.02;98792.37;104526;1278;108043;-65
2023/03/16 00:14:48;;;;;;;43.40;20.10;;;;;;;-1.33;75.09;98792.48;104564;1276;96750;-65
2023/03/16 00:17:18;;;;;;;43.60;19.10;;;;;;;-1.37;75.02;98792.70;104596;1266;97849;-65
2023/03/16 00:19:54;;;;;;;46.10;20.20;;;;;;;-1.42;75.37;98795.87;104273;1279;110098;-66
2023/03/16 00:22:24;;;;;;;44.90;19.30;;;;;;;-1.48;75.56;98795.58;104614;1267;99555;-66
2023/03/16 00:24:52;;;;;;;55.30;21.30;;;;;;;-1.54;75.76;98798.48;104468;1269;107622;-65
2023/03/16 00:27:21;;;;;;;52.90;21.00;;;;;;;-1.58;76.22;98804.07;104550;1276;96639;-66
2023/03/16 00:29:54;;;;;;;58.40;22.50;;;;;;;-1.61;76.25;98804.70;104427;1269;97803;-65
2023/03/16 00:32:28;;;;;;;53.30;21.90;;;;;;;-1.62;76.27;98804.95;104526;1277;108129;-67
2023/03/16 00:34:55;;;;;;;57.00;21.50;;;;;;;-1.63;76.55;98803.64;104593;1270;99152;-64
2023/03/16 00:37:25;;;;;;;50.00;21.30;;;;;;;-1.63;76.66;98803.57;104551;1266;96572;-64
2023/03/16 00:39:56;;;;;;;56.10;23.80;;;;;;;-1.64;76.72;98802.42;104562;1267;96641;-64
2023/03/16 00:42:26;;;;;;;58.10;23.40;;;;;;;-1.63;76.75;98801.58;104579;1276;96900;-65
2023/03/16 00:44:57;;;;;;;49.60;21.20;;;;;;;-1.64;76.86;98806.46;104569;1276;111723;-65
2023/03/16 00:47:27;;;;;;;;;;;;;;;-1.63;76.97;98805.19;104494;1276;99213;-65
2023/03/16 00:49:54;;;;;;;48.90;18.00;;;;;;;-1.66;77.23;98806.26;104421;1276;108551;-65
2023/03/16 00:52:22;;;;;;;43.70;18.10;;;;;;;-1.67;77.50;98804.16;104416;1264;96783;-65
2023/03/16 00:54:52;;;;;;;48.50;18.00;;;;;;;-1.67;77.69;98803.46;104572;1276;97338;-67
2023/03/16 00:57:21;;;;;;;38.10;16.30;;;;;;;-1.69;77.98;98808.10;104354;1269;108927;-66
2023/03/16 00:59:50;;;;;;;42.90;17.30;;;;;;;-1.71;78.43;98813.27;104661;1269;99159;-66
2023/03/16 01:02:18;;;;;;;40.80;16.00;;;;;;;-1.70;78.66;98813.92;104432;1276;108549;-65
2023/03/16 01:04:45;;;;;;;33.50;15.60;;;;;;;-1.70;79.02;98812.59;104446;1268;97857;-65
2023/03/16 01:07:13;;;;;;;35.00;15.00;;;;;;;-1.69;79.04;98812.83;104465;1276;96605;-66
2023/03/16 01:09:41;;;;;;;36.60;14.40;;;;;;;-1.68;78.93;98816.34;104546;1276;98217;-66
2023/03/16 01:12:11;;;;;;;35.30;14.00;;;;;;;-1.69;78.93;98816.92;104482;1276;99077;-65
2023/03/16 01:14:39;;;;;;;34.70;14.00;;;;;;;-1.73;78.92;98814.45;104047;1278;613440;-66
2023/03/16 01:17:08;;;;;;;34.30;14.70;;;;;;;-1.76;78.94;98818.67;104483;1276;96648;-65
2023/03/16 01:19:36;;;;;;;38.70;15.40;;;;;;;-1.81;78.98;98816.55;104523;1276;96492;-65
2023/03/16 01:22:05;;;;;;;38.50;16.70;;;;;;;-1.86;79.36;98819.05;104489;1270;110472;-65
2023/03/16 01:24:36;;;;;;;36.40;15.10;;;;;;;-1.92;79.33;98818.48;104409;1276;99380;-65
2023/03/16 01:27:04;;;;;;;36.40;15.80;;;;;;;-1.98;79.51;98816.59;104335;1277;108166;-66
2023/03/16 01:29:32;;;;;;;36.30;14.70;;;;;;;-2.04;79.42;98820.98;104575;1276;96609;-66
2023/03/16 01:32:00;;;;;;;38.10;16.80;;;;;;;-2.08;79.72;98819.50;104476;1267;97945;-66
2023/03/16 01:34:27;;;;;;;41.40;18.30;;;;;;;-2.09;79.66;98823.86;104363;1270;107961;-65
2023/03/16 01:36:54;;;;;;;42.30;17.90;;;;;;;-2.10;79.91;98820.11;104478;1269;96550;-64
2023/03/16 01:39:22;;;;;;;48.50;19.50;;;;;;;-2.09;79.74;98822.63;104505;1266;96573;-64
2023/03/16 01:41:49;;;;;;;41.50;19.30;;;;;;;-2.11;79.81;98822.02;104413;1267;96498;-64
2023/03/16 01:44:23;;;;;;;46.20;19.00;;;;;;;-2.13;79.97;98820.09;104395;1276;98424;-64
2023/03/16 01:46:50;;;;;;;41.80;17.60;;;;;;;-2.12;80.02;98822.61;104519;1269;109751;-64
2023/03/16 01:49:29;;;;;;;52.70;20.50;;;;;;;-2.09;80.20;98821.13;104582;1280;96550;-65
2023/03/16 01:52:03;;;;;;;51.10;20.10;;;;;;;-2.06;80.22;98818.25;104545;1274;108211;-64
2023/03/16 01:54:35;;;;;;;55.20;21.70;;;;;;;-2.06;80.08;98816.27;104549;1285;97166;-65
2023/03/16 01:57:12;;;;;;;48.60;19.90;;;;;;;-2.04;80.09;98814.02;104593;1265;96743;-65
2023/03/16 01:59:53;;;;;;;49.90;20.80;;;;;;;-2.04;80.06;98819.42;104313;1267;109871;-67
2023/03/16 02:02:25;;;;;;;98.00;30.10;;;;;;;-2.04;80.03;98822.34;104175;1281;98283;-66
2023/03/16 02:04:58;;;;;;;82.50;28.20;;;;;;;-2.05;80.03;98824.80;104468;1276;109517;-65
2023/03/16 02:07:28;;;;;;;59.40;21.10;;;;;;;-2.02;80.13;98827.41;104514;1267;96581;-65
2023/03/16 02:09:59;;;;;;;43.30;17.60;;;;;;;-1.99;80.18;98829.02;104477;1276;96589;-65
2023/03/16 02:12:27;;;;;;;;;;;;;;;-1.99;79.96;98836.34;104580;1274;111024;-66
2023/03/16 02:14:54;;;;;;;37.50;17.10;;;;;;;-1.97;80.12;98840.79;104395;1266;100386;-66
2023/03/16 02:17:28;;;;;;;37.50;17.20;;;;;;;-2.00;79.70;98842.64;104473;1267;96555;-65
2023/03/16 02:20:10;;;;;;;40.70;17.20;;;;;;;-2.08;79.53;98843.43;104472;1267;97506;-66
2023/03/16 02:22:44;;;;;;;42.30;17.40;;;;;;;-2.11;79.95;98848.50;104622;1267;96510;-65
2023/03/16 02:25:13;;;;;;;41.70;17.50;;;;;;;-2.16;79.86;98850.59;104519;1276;110844;-66
2023/03/16 02:28:18;;;;;;;52.00;19.60;;;;;;;-2.20;79.80;98852.34;104344;1267;98042;-64
2023/03/16 02:30:46;;;;;;;45.80;18.30;;;;;;;-2.26;79.93;98860.38;103828;1277;108272;-64
2023/03/16 02:33:16;;;;;;;43.50;18.80;;;;;;;-2.32;80.10;98867.13;103855;1274;96747;-67
2023/03/16 02:35:43;;;;;;;71.70;23.80;;;;;;;-2.38;80.19;98871.05;103983;1284;96754;-64
2023/03/16 02:38:10;;;;;;;50.80;19.50;;;;;;;-2.45;80.08;98871.70;103963;1273;97873;-64
2023/03/16 02:40:38;;;;;;;49.60;18.10;;;;;;;-2.53;80.38;98874.83;104021;1282;96714;-64
2023/03/16 02:43:20;;;;;;;46.90;19.80;;;;;;;-2.57;80.56;98880.27;103970;1281;108560;-65
2023/03/16 02:45:57;;;;;;;42.70;19.60;;;;;;;-2.61;80.49;98880.67;103973;1284;96650;-65
2023/03/16 02:48:32;;;;;;;49.20;21.70;;;;;;;-2.63;80.57;98882.19;103958;1275;97185;-65
2023/03/16 02:50:59;;;;;;;54.00;22.10;;;;;;;-2.62;80.79;98883.50;103849;1274;110150;-65
2023/03/16 02:53:26;;;;;;;53.40;23.30;;;;;;;-2.62;80.62;98890.20;103821;1275;98104;-64
2023/03/16 02:55:54;;;;;;;50.60;21.80;;;;;;;-2.62;80.86;98895.20;103967;1280;97440;-64
2023/03/16 02:58:21;;;;;;;49.30;21.80;;;;;;;-2.61;80.78;98893.56;104130;1269;96625;-65
2023/03/16 03:00:48;;;;;;;47.40;19.40;;;;;;;-2.61;80.77;98902.16;104014;1291;96729;-64
2023/03/16 03:03:15;;;;;;;42.40;19.50;;;;;;;-2.60;80.94;98904.58;104089;1271;97126;-64
2023/03/16 03:05:43;;;;;;;49.80;21.50;;;;;;;-2.60;80.74;98907.64;104112;1272;96564;-64
2023/03/16 03:08:10;;;;;;;71.00;24.60;;;;;;;-2.58;80.88;98910.54;104210;1284;96723;-64
2023/03/16 03:10:37;;;;;;;53.30;20.80;;;;;;;-2.58;80.96;98918.23;104456;1267;96614;-64
2023/03/16 03:13:06;;;;;;;74.50;25.40;;;;;;;-2.59;80.93;98916.80;104458;1267;96574;-64
2023/03/16 03:15:34;;;;;;;70.20;23.90;;;;;;;-2.60;80.97;98916.55;104483;1264;96582;-64
2023/03/16 03:18:03;;;;;;;50.70;22.00;;;;;;;-2.58;81.36;98920.66;104362;1267;96576;-64
2023/03/16 03:20:32;;;;;;;60.10;23.90;;;;;;;-2.56;81.43;98922.87;104180;1267;108255;-64
2023/03/16 03:22:58;;;;;;;52.70;21.80;;;;;;;-2.55;81.29;98927.14;104405;1284;96559;-64
2023/03/16 03:25:25;;;;;;;39.20;18.80;;;;;;;-2.57;81.05;98927.91;104318;1277;96659;-65
2023/03/16 03:27:53;;;;;;;40.00;17.00;;;;;;;-2.60;81.26;98932.23;104407;1268;96580;-64
2023/03/16 03:30:23;;;;;;;30.80;16.10;;;;;;;-2.61;81.41;98932.62;104498;1267;96524;-64
2023/03/16 03:32:53;;;;;;;33.40;16.10;;;;;;;-2.60;81.64;98931.77;104548;1267;108497;-64
2023/03/16 03:35:21;;;;;;;35.20;16.90;;;;;;;-2.63;81.47;98935.30;104372;1268;97163;-64
2023/03/16 03:37:49;;;;;;;56.90;22.40;;;;;;;-2.68;81.48;98936.55;104418;1263;97337;-66
2023/03/16 03:40:18;;;;;;;47.10;19.70;;;;;;;-2.69;81.71;98935.25;104457;1268;110938;-65
2023/03/16 03:42:45;;;;;;;45.50;19.20;;;;;;;-2.69;81.84;98940.36;104561;1267;97697;-66
2023/03/16 03:45:13;;;;;;;60.80;22.00;;;;;;;-2.72;82.00;98940.34;104522;1267;96638;-66
2023/03/16 03:47:41;;;;;;;63.30;23.20;;;;;;;-2.76;81.91;98940.59;104453;1269;96559;-66
2023/03/16 03:50:12;;;;;;;48.40;19.30;;;;;;;-2.79;82.22;98941.55;104191;1280;96607;-65
2023/03/16 03:52:39;;;;;;;45.40;19.50;;;;;;;-2.82;82.27;98941.25;104362;1270;110785;-66
2023/03/16 03:55:06;;;;;;;43.80;20.80;;;;;;;-2.86;82.33;98944.66;104266;1276;96700;-65
2023/03/16 03:57:34;;;;;;;44.30;20.40;;;;;;;-2.91;82.18;98941.97;104322;1266;96664;-66
2023/03/16 04:00:01;;;;;;;50.30;21.40;;;;;;;-2.94;82.24;98944.52;104269;1262;96568;-65
2023/03/16 04:02:28;;;;;;;56.30;22.30;;;;;;;-2.94;82.27;98947.79;104406;1277;96553;-65
2023/03/16 04:04:55;;;;;;;53.00;22.40;;;;;;;-2.93;82.63;98951.69;104374;1267;96569;-65
2023/03/16 04:07:22;;;;;;;49.80;22.00;;;;;;;-2.93;82.70;98955.98;104402;1269;97456;-65
2023/03/16 04:09:50;;;;;;;78.20;28.00;;;;;;;-2.92;82.87;98953.45;104389;1266;96638;-66
2023/03/16 04:12:17;;;;;;;101.40;34.80;;;;;;;-2.86;82.90;98955.10;104513;1267;97300;-66
2023/03/16 04:14:44;;;;;;;84.30;30.00;;;;;;;-2.84;82.75;98960.17;104432;1262;97075;-65
2023/03/16 04:17:11;;;;;;;54.20;22.70;;;;;;;-2.83;82.90;98959.49;104888;1272;96550;-65
2023/03/16 04:19:38;;;;;;;51.80;21.50;;;;;;;-2.81;82.76;98960.92;104630;1261;96653;-64
2023/03/16 04:22:06;;;;;;;48.60;21.00;;;;;;;-2.79;82.72;98962.40;104827;1260;96550;-65
2023/03/16 04:24:34;;;;;;;49.30;20.90;;;;;;;-2.76;82.60;98967.74;104806;1273;96576;-65
2023/03/16 04:27:01;;;;;;;74.40;27.80;;;;;;;-2.74;82.81;98964.05;104698;1260;96538;-64
2023/03/16 04:29:28;;;;;;;75.10;24.10;;;;;;;-2.68;82.89;98963.17;104979;1257;96647;-64
2023/03/16 04:31:55;;;;;;;39.90;17.30;;;;;;;-2.66;82.70;98967.30;104903;1257;96596;-64
2023/03/16 04:34:23;;;;;;;40.20;18.40;;;;;;;-2.67;82.80;98968.45;104963;1260;97884;-64
2023/03/16 04:36:52;;;;;;;67.00;25.80;;;;;;;-2.69;82.67;98971.45;104935;1273;96805;-65
2023/03/16 04:39:20;;;;;;;68.10;25.40;;;;;;;-2.73;82.75;98971.73;104866;1258;110982;-65
2023/03/16 04:41:47;;;;;;;48.50;22.80;;;;;;;-2.78;82.95;98971.63;104864;1279;99172;-64
2023/03/16 04:44:14;;;;;;;59.50;23.10;;;;;;;-2.82;83.01;98976.98;104662;1264;107578;-65
2023/03/16 04:46:42;;;;;;;44.40;20.50;;;;;;;-2.85;83.01;98976.88;104893;1261;96600;-64
2023/03/16 04:49:09;;;;;;;47.70;20.30;;;;;;;-2.90;82.94;98975.84;104934;1260;96637;-65
2023/03/16 04:51:39;;;;;;;49.10;20.80;;;;;;;-2.96;82.73;98982.03;104907;1262;96554;-65
2023/03/16 04:54:06;;;;;;;95.30;30.50;;;;;;;-3.02;82.86;98986.94;104776;1261;97286;-65
2023/03/16 04:56:33;;;;;;;148.60;39.80;;;;;;;-3.05;83.16;98987.91;104754;1276;96549;-65
2023/03/16 04:59:00;;;;;;;96.00;32.10;;;;;;;-3.09;83.01;98989.59;104626;1261;96601;-65
2023/03/16 05:01:27;;;;;;;106.80;36.50;;;;;;;-3.12;83.08;98987.61;104832;1273;97451;-66
2023/03/16 05:03:54;;;;;;;80.00;31.90;;;;;;;-3.10;83.23;98987.52;104693;1261;96613;-66
2023/03/16 05:06:21;;;;;;;71.60;27.20;;;;;;;-3.10;83.11;98987.90;104930;1273;96605;-65
2023/03/16 05:08:48;;;;;;;69.40;26.00;;;;;;;-3.09;83.18;98989.38;104766;1261;96645;-65
2023/03/16 05:11:15;;;;;;;63.10;23.90;;;;;;;-3.07;83.33;98993.11;104779;1261;96578;-65
2023/03/16 05:13:42;;;;;;;91.80;31.30;;;;;;;-3.06;83.20;98997.33;104941;1260;97855;-65
2023/03/16 05:16:09;;;;;;;45.70;21.70;;;;;;;-3.03;83.34;99001.50;104589;1258;98968;-65
2023/03/16 05:18:37;;;;;;;44.80;21.20;;;;;;;-2.99;83.53;99004.02;104889;1260;96628;-65
2023/03/16 05:21:04;;;;;;;84.40;29.60;;;;;;;-2.95;83.37;99007.58;104902;1261;96644;-65
2023/03/16 05:23:31;;;;;;;56.50;23.00;;;;;;;-2.94;83.47;99008.89;104886;1259;97006;-65
2023/03/16 05:25:58;;;;;;;37.70;16.80;;;;;;;-2.91;83.65;99017.23;104903;1257;97757;-65
2023/03/16 05:28:26;;;;;;;29.60;14.30;;;;;;;-2.89;83.60;99015.73;104945;1262;96500;-65
2023/03/16 05:30:53;;;;;;;37.70;15.80;;;;;;;-2.90;83.68;99014.92;104896;1258;96532;-65
2023/03/16 05:33:20;;;;;;;31.90;16.00;;;;;;;-2.91;83.85;99020.20;104911;1274;96575;-65
2023/03/16 05:35:49;;;;;;;36.70;16.20;;;;;;;-2.92;84.03;99023.91;104878;1260;96559;-65
2023/03/16 05:38:17;;;;;;;38.20;16.50;;;;;;;-2.91;84.19;99023.42;104873;1262;110432;-65
2023/03/16 05:40:45;;;;;;;34.50;16.40;;;;;;;-2.91;84.27;99027.51;105007;1261;96591;-65
2023/03/16 05:43:12;;;;;;;33.20;16.60;;;;;;;-2.89;84.38;99029.86;104866;1261;107534;-65
2023/03/16 05:45:39;;;;;;;37.00;18.10;;;;;;;-2.88;84.52;99027.37;104852;1259;97456;-66
2023/03/16 05:48:06;;;;;;;46.60;21.10;;;;;;;-2.85;84.81;99031.27;104817;1273;97023;-65
2023/03/16 05:50:33;;;;;;;46.30;21.40;;;;;;;-2.81;84.84;99031.91;104761;1263;96574;-65
2023/03/16 05:53:00;;;;;;;48.60;21.00;;;;;;;-2.75;84.93;99033.48;104884;1263;96619;-65
2023/03/16 05:55:27;;;;;;;51.90;22.70;;;;;;;-2.68;85.03;99034.38;104910;1260;96623;-65
2023/03/16 05:57:54;;;;;;;49.00;22.50;;;;;;;-2.61;85.09;99041.27;104901;1257;97449;-65
2023/03/16 06:00:24;;;;;;;47.60;23.60;;;;;;;-2.55;85.36;99042.53;104927;1272;96558;-65
2023/03/16 06:02:52;;;;;;;46.80;21.90;;;;;;;-2.46;85.50;99045.66;104892;1258;111828;-65
2023/03/16 06:05:21;;;;;;;54.90;22.90;;;;;;;-2.37;85.58;99050.66;104711;1263;98205;-65
2023/03/16 06:07:49;;;;;;;53.20;25.30;;;;;;;-2.26;85.76;99056.08;104637;1263;108025;-65
2023/03/16 06:10:16;;;;;;;55.20;25.20;;;;;;;-2.10;86.33;99059.62;104674;1266;96674;-65
2023/03/16 06:12:44;;;;;;;58.90;26.50;;;;;;;-1.95;86.55;99058.16;104737;1261;96719;-65
2023/03/16 06:15:11;;;;;;;49.80;24.40;;;;;;;-1.78;86.92;99061.34;104926;1256;110948;-65
2023/03/16 06:17:40;;;;;;;58.00;27.60;;;;;;;-1.62;86.79;99065.85;104684;1280;98310;-66
2023/03/16 06:20:12;;;;;;;58.50;24.90;;;;;;;-1.48;86.54;99069.21;104523;1263;108410;-69
2023/03/16 06:22:41;;;;;;;50.20;23.40;;;;;;;-1.35;86.42;99067.70;104802;1263;97845;-67
2023/03/16 06:25:10;;;;;;;51.60;23.40;;;;;;;-1.25;86.14;99075.73;104689;1263;96652;-67
2023/03/16 06:27:38;;;;;;;45.20;21.30;;;;;;;-1.11;86.35;99079.08;104939;1261;110887;-64
2023/03/16 06:30:09;;;;;;;39.80;18.60;;;;;;;-0.97;86.13;99081.07;104657;1264;98900;-66
2023/03/16 06:32:37;;;;;;;29.70;14.90;;;;;;;-0.86;85.76;99081.14;104915;1257;109061;-65
2023/03/16 06:35:04;;;;;;;30.80;15.20;;;;;;;-0.75;85.49;99084.66;104885;1270;96617;-64
2023/03/16 06:37:32;;;;;;;33.80;14.90;;;;;;;-0.70;85.41;99084.63;104970;1260;96511;-65
2023/03/16 06:39:59;;;;;;;32.30;15.20;;;;;;;-0.67;85.26;99085.30;104911;1259;110801;-64
2023/03/16 06:42:26;;;;;;;25.30;12.50;;;;;;;-0.66;85.03;99090.16;104972;1261;96581;-64
2023/03/16 06:44:53;;;;;;;26.30;13.30;;;;;;;-0.67;84.77;99093.29;104885;1263;97442;-65
2023/03/16 06:47:21;;;;;;;26.30;13.60;;;;;;;-0.65;84.91;99092.15;104961;1261;96603;-64
2023/03/16 06:49:50;;;;;;;34.40;15.20;;;;;;;-0.61;84.70;99096.33;104983;1258;96562;-65
2023/03/16 06:52:17;;;;;;;30.00;14.70;;;;;;;-0.57;85.22;99102.68;104898;1263;111099;-64
2023/03/16 06:54:44;;;;;;;37.40;16.80;;;;;;;-0.51;84.90;99101.17;104894;1259;96565;-65
2023/03/16 06:57:11;;;;;;;38.40;16.30;;;;;;;-0.42;84.91;99102.24;104936;1269;97979;-65
2023/03/16 06:59:38;;;;;;;43.00;17.00;;;;;;;-0.33;84.47;99103.98;104919;1260;97135;-64
2023/03/16 07:02:06;;;;;;;29.70;14.10;;;;;;;-0.27;84.56;99110.44;104839;1260;96988;-65
2023/03/16 07:04:33;;;;;;;32.40;13.80;;;;;;;-0.20;84.43;99110.45;104782;1273;96545;-65
2023/03/16 07:07:00;;;;;;;28.70;13.80;;;;;;;-0.12;84.15;99110.86;104774;1257;96658;-65
2023/03/16 07:09:28;;;;;;;26.20;12.70;;;;;;;-0.01;83.97;99114.89;104813;1259;97985;-65
2023/03/16 07:11:54;;;;;;;23.40;11.20;;;;;;;0.08;83.72;99118.23;104901;1269;96555;-65
2023/03/16 07:14:23;;;;;;;23.60;11.80;;;;;;;0.12;83.54;99118.74;104892;1261;97328;-66
2023/03/16 07:16:51;;;;;;;25.40;10.60;;;;;;;0.21;83.33;99118.59;104783;1261;96633;-64
2023/03/16 07:19:19;;;;;;;25.80;11.60;;;;;;;0.28;83.10;99116.48;104919;1273;97465;-65
2023/03/16 07:21:46;;;;;;;40.10;16.70;;;;;;;0.38;83.21;99120.53;104782;1259;98040;-64
2023/03/16 07:24:14;;;;;;;32.30;13.40;;;;;;;0.48;82.83;99117.41;104715;1257;96471;-64
2023/03/16 07:26:41;;;;;;;29.10;12.00;;;;;;;0.55;82.83;99120.20;104768;1258;97056;-65
2023/03/16 07:29:08;;;;;;;32.40;13.90;;;;;;;0.60;82.59;99120.96;104703;1261;96553;-65
2023/03/16 07:31:35;;;;;;;32.20;14.30;;;;;;;0.69;82.49;99126.71;104844;1261;96557;-66
2023/03/16 07:34:03;;;;;;;24.40;12.50;;;;;;;0.74;82.18;99129.74;104760;1259;96645;-66
2023/03/16 07:36:31;;;;;;;24.50;11.80;;;;;;;0.80;82.27;99134.21;104651;1261;97856;-65
2023/03/16 07:38:58;;;;;;;29.10;12.70;;;;;;;0.88;82.05;99131.15;104588;1259;96545;-65
2023/03/16 07:41:26;;;;;;;30.80;14.10;;;;;;;1.04;82.08;99141.14;104669;1274;96605;-65
2023/03/16 07:43:53;;;;;;;23.20;12.10;;;;;;;1.18;81.81;99137.75;104705;1263;97999;-66
2023/03/16 07:46:20;;;;;;;27.80;12.50;;;;;;;1.28;80.86;99138.90;104768;1269;96563;-68
2023/03/16 07:48:47;;;;;;;28.60;11.90;;;;;;;1.35;80.66;99141.16;104896;1259;96649;-65
2023/03/16 07:51:14;;;;;;;24.70;11.80;;;;;;;1.40;80.34;99142.27;104835;1261;97151;-65
2023/03/16 07:53:41;;;;;;;27.70;12.80;;;;;;;1.46;80.51;99144.05;104887;1259;96673;-65
2023/03/16 07:56:08;;;;;;;25.90;12.50;;;;;;;1.59;80.59;99135.55;104955;1257;96538;-65
2023/03/16 07:58:36;;;;;;;28.30;12.20;;;;;;;1.75;80.27;99137.71;105015;1280;97458;-65
2023/03/16 08:01:03;;;;;;;28.70;13.50;;;;;;;1.93;80.53;99134.56;104819;1262;96566;-65
2023/03/16 08:03:30;;;;;;;20.80;10.60;;;;;;;2.12;79.69;99139.35;104950;1258;96572;-64
2023/03/16 08:05:58;;;;;;;22.00;10.90;;;;;;;2.20;78.91;99136.54;104850;1259;96584;-65
2023/03/16 08:08:25;;;;;;;24.00;10.90;;;;;;;2.23;77.87;99140.08;104929;1261;96994;-65
2023/03/16 08:10:52;;;;;;;20.80;11.00;;;;;;;2.32;78.33;99141.18;104829;1263;96572;-65
2023/03/16 08:13:22;;;;;;;23.10;11.30;;;;;;;2.44;78.21;99145.95;104925;1263;96565;-67
2023/03/16 08:15:57;;;;;;;21.40;11.30;;;;;;;2.75;78.04;99147.15;104772;1258;96588;-67
2023/03/16 08:18:25;;;;;;;20.80;11.00;;;;;;;2.96;76.33;99143.73;104673;1265;109347;-67
2023/03/16 08:20:52;;;;;;;22.10;11.30;;;;;;;3.15;76.87;99146.95;104960;1261;99215;-66
2023/03/16 08:23:20;;;;;;;30.90;12.90;;;;;;;3.49;76.76;99149.33;104858;1262;97234;-68
2023/03/16 08:25:51;;;;;;;48.80;17.70;;;;;;;3.89;76.21;99149.55;104734;1271;96571;-66
2023/03/16 08:28:20;;;;;;;;;;;;;;;4.35;75.15;99149.98;104698;1264;96622;-68
2023/03/16 08:30:49;;;;;;;21.10;10.40;;;;;;;4.73;74.07;99153.71;104612;1260;109894;-67
2023/03/16 08:33:18;;;;;;;21.20;9.50;;;;;;;5.08;72.72;99151.34;104697;1261;99216;-67
2023/03/16 08:35:49;;;;;;;20.80;10.00;;;;;;;5.32;71.32;99152.36;104565;1263;107892;-67
2023/03/16 08:38:18;;;;;;;36.50;14.90;;;;;;;5.68;70.86;99150.06;104885;1270;97778;-67
2023/03/16 08:40:47;;;;;;;16.70;7.70;;;;;;;6.06;70.31;99147.23;104920;1263;97467;-67
2023/03/16 08:43:15;;;;;;;12.20;5.80;;;;;;;6.47;68.28;99148.48;104683;1268;110892;-66
2023/03/16 08:45:47;;;;;;;11.90;5.60;;;;;;;6.85;68.11;99144.92;104747;1264;98301;-66
2023/03/16 08:48:14;;;;;;;9.80;4.90;;;;;;;7.17;66.02;99145.74;104584;1264;107927;-66
2023/03/16 08:50:42;;;;;;;7.80;4.40;;;;;;;7.34;65.09;99150.73;104930;1259;97462;-65
2023/03/16 08:53:12;;;;;;;12.00;4.90;;;;;;;7.67;64.25;99157.66;104926;1260;96530;-65
2023/03/16 08:55:41;;;;;;;8.00;4.70;;;;;;;8.02;62.52;99160.10;104964;1261;110858;-65
2023/03/16 08:58:09;;;;;;;9.40;4.40;;;;;;;8.34;62.32;99163.08;104776;1261;99153;-65
2023/03/16 09:00:37;;;;;;;10.10;5.10;;;;;;;8.68;60.05;99169.47;104735;1259;108502;-65
2023/03/16 09:03:05;;;;;;;10.50;4.70;;;;;;;8.71;59.56;99168.73;104707;1264;96644;-67
2023/03/16 09:05:32;;;;;;;11.20;4.60;;;;;;;8.83;58.82;99172.05;104667;1260;96533;-69
2023/03/16 09:08:00;;;;;;;9.40;4.70;;;;;;;9.12;59.71;99175.84;104963;1258;109803;-65
2023/03/16 09:10:27;;;;;;;6.00;3.30;;;;;;;9.53;57.72;99173.73;104982;1261;99232;-66
2023/03/16 09:12:55;;;;;;;9.70;4.40;;;;;;;9.73;56.82;99170.10;104637;1266;108280;-64
2023/03/16 09:15:23;;;;;;;5.40;3.20;;;;;;;10.06;54.94;99170.16;104921;1277;98312;-65
2023/03/16 09:17:49;;;;;;;6.70;3.70;;;;;;;10.57;56.75;99172.20;104975;1260;97993;-65
2023/03/16 09:20:17;;;;;;;5.40;2.90;;;;;;;11.13;52.10;99170.96;104872;1261;96630;-66
2023/03/16 09:23:00;;;;;;;5.70;3.60;;;;;;;11.31;50.95;99168.40;104939;1261;99260;-66
2023/03/16 09:25:27;;;;;;;3.70;2.30;;;;;;;11.41;50.90;99170.20;104855;1262;97786;-64
2023/03/16 09:27:55;;;;;;;5.50;2.10;;;;;;;11.34;49.09;99173.17;104733;1262;96631;-66
2023/03/16 09:30:21;;;;;;;4.10;2.10;;;;;;;10.90;48.38;99173.46;104913;1257;96542;-65
2023/03/16 09:32:49;;;;;;;23.50;8.10;;;;;;;10.55;49.67;99181.38;104932;1260;96567;-66
2023/03/16 09:35:16;;;;;;;6.10;3.30;;;;;;;10.28;50.49;99177.66;104998;1261;97866;-65
2023/03/16 09:37:44;;;;;;;3.80;2.40;;;;;;;10.00;50.57;99180.50;104871;1261;96571;-67
2023/03/16 09:40:31;;;;;;;6.30;3.40;;;;;;;9.77;51.89;99179.95;104571;1264;96714;-66
2023/03/16 09:43:22;;;;;;;9.30;4.10;;;;;;;9.79;50.57;99177.02;104919;1261;97458;-65
2023/03/16 09:46:21;;;;;;;6.70;4.10;;;;;;;9.73;51.52;99181.10;104948;1260;110942;-65
2023/03/16 09:48:48;;;;;;;6.40;3.90;;;;;;;9.67;50.62;99186.75;104890;1262;98951;-65
2023/03/16 09:51:45;;;;;;;6.40;3.90;;;;;;;9.41;50.37;99186.65;104806;1257;96617;-66
2023/03/16 09:54:54;;;;;;;9.00;4.40;;;;;;;9.14;51.13;99185.86;104886;1256;97736;-65
2023/03/16 09:57:29;;;;;;;8.20;4.00;;;;;;;9.31;51.04;99185.52;104223;1270;96544;-65
2023/03/16 10:00:21;;;;;;;18.90;5.90;;;;;;;9.65;49.48;99180.11;104559;1263;110815;-66
2023/03/16 10:03:22;;;;;;;10.80;4.30;;;;;;;10.16;49.08;99182.21;104495;1262;99188;-65
2023/03/16 10:06:00;;;;;;;11.80;4.00;;;;;;;10.42;46.75;99182.20;104528;1265;108569;-66
2023/03/16 10:09:01;;;;;;;6.60;3.80;;;;;;;10.11;47.20;99185.58;104476;1265;97872;-65
2023/03/16 10:11:51;;;;;;;15.40;6.60;;;;;;;10.02;48.61;99188.02;104526;1262;97734;-67
2023/03/16 10:14:29;;;;;;;10.30;3.80;;;;;;;10.06;47.03;99191.24;104404;1262;110862;-68
2023/03/16 10:17:16;;;;;;;8.10;3.70;;;;;;;9.93;46.90;99186.35;104290;1265;98932;-65
2023/03/16 10:20:13;;;;;;;10.50;4.80;;;;;;;10.16;47.16;99190.11;104521;1265;108587;-66
2023/03/16 10:22:46;;;;;;;6.60;3.40;;;;;;;10.43;46.48;99190.22;104741;1264;97205;-66
2023/03/16 10:25:29;;;;;;;7.50;3.70;;;;;;;10.43;46.26;99191.32;104278;1269;96646;-68
2023/03/16 10:27:56;;;;;;;7.90;3.60;;;;;;;10.38;46.61;99195.79;104452;1269;109728;-65
2023/03/16 10:30:37;;;;;;;7.80;4.00;;;;;;;10.56;46.49;99197.04;104554;1265;96746;-65
2023/03/16 10:33:17;;;;;;;6.50;3.70;;;;;;;10.33;45.79;99199.98;104512;1260;108639;-66
2023/03/16 10:36:01;;;;;;;6.20;4.00;;;;;;;9.96;46.29;99199.32;104724;1273;96547;-65
2023/03/16 10:38:39;;;;;;;7.20;3.70;;;;;;;9.65;46.31;99198.33;104625;1264;96484;-67
2023/03/16 10:41:22;;;;;;;7.00;3.50;;;;;;;9.30;47.16;99198.76;104940;1262;110859;-65
2023/03/16 10:43:51;;;;;;;6.70;3.30;;;;;;;9.03;47.39;99199.44;104792;1262;99346;-66
2023/03/16 10:46:18;;;;;;;6.90;3.50;;;;;;;8.94;48.30;99199.16;104685;1274;106386;-66
2023/03/16 10:49:00;;;;;;;10.30;4.60;;;;;;;8.86;48.51;99194.16;104960;1257;96570;-65
2023/03/16 10:51:31;;;;;;;8.70;3.40;;;;;;;8.87;48.42;99190.98;104857;1261;96549;-67
2023/03/16 10:54:32;;;;;;;6.60;2.50;;;;;;;8.80;48.07;99189.14;104971;1258;109353;-66
2023/03/16 10:57:12;;;;;;;10.40;5.10;;;;;;;8.48;45.71;99191.88;104915;1261;98967;-66
2023/03/16 10:59:48;;;;;;;14.90;5.20;;;;;;;8.19;45.62;99192.02;105002;1259;108576;-66
2023/03/16 11:02:19;;;;;;;8.60;3.60;;;;;;;7.92;46.34;99190.90;104767;1260;96543;-65
2023/03/16 11:04:46;;;;;;;11.40;3.50;;;;;;;7.64;47.82;99192.38;104666;1264;96800;-65
2023/03/16 11:07:17;;;;;;;5.90;2.90;;;;;;;7.75;48.41;99191.88;104945;1260;110854;-66
2023/03/16 11:09:46;;;;;;;5.40;2.50;;;;;;;7.74;47.72;99194.29;104583;1265;98360;-65
2023/03/16 11:12:21;;;;;;;5.20;2.20;;;;;;;7.74;47.96;99193.19;104933;1261;108254;-65
2023/03/16 11:14:49;;;;;;;5.90;2.60;;;;;;;7.75;48.97;99192.91;104915;1262;97382;-66
2023/03/16 11:17:27;;;;;;;7.30;2.30;;;;;;;7.78;48.13;99196.17;105251;1261;96518;-65
2023/03/16 11:19:59;;;;;;;6.50;2.30;;;;;;;7.72;48.92;99194.79;104498;1277;109563;-66
2023/03/16 11:22:28;;;;;;;5.90;1.90;;;;;;;7.86;48.37;99197.16;104772;1259;98183;-66
2023/03/16 11:25:03;;;;;;;6.50;2.20;;;;;;;8.07;48.88;99192.55;104631;1261;108526;-65
2023/03/16 11:27:40;;;;;;;8.90;2.00;;;;;;;8.23;48.38;99191.19;104772;1262;96458;-64